Time;durP1;ratioP1;P1;durP2;ratioP2;P2;SDS_P1;SDS_P2;PMS_P1;PMS_P2;Temp;Humidity;BMP_temperature;BMP_pressure;BME280_temperature;BME280_humidity;BME280_pressure;Samples;Min_cycle;Max_cycle;Signal;HPM_P1;HPM_P2
2023/08/14 00:00:26;;;;;;;;;;;14.80;99.90;;;;;;5049353;28;19983;-78
2023/08/14 00:02:52;;;;;;;;;;;14.80;99.90;;;;;;5015094;28;20383;-78
2023/08/14 00:05:17;;;;;;;;;;;14.80;99.90;;;;;;5033953;28;20000;-78
2023/08/14 00:07:43;;;;;;;;;;;14.80;99.90;;;;;;5017584;28;19936;-78
2023/08/14 00:10:09;;;;;;;;;;;14.80;99.90;;;;;;5032388;28;19968;-78
2023/08/14 00:12:34;;;;;;;;;;;14.80;99.90;;;;;;4998554;28;19929;-78
2023/08/14 00:15:07;;;;;;;;;;;14.80;99.90;;;;;;5032577;28;19936;-78
2023/08/14 00:17:33;;;;;;;;;;;14.80;99.90;;;;;;5033139;28;19933;-78
2023/08/14 00:19:58;;;;;;;;;;;14.80;99.90;;;;;;5014039;28;20383;-78
2023/08/14 00:22:25;;;;;;;;;;;14.80;99.90;;;;;;5016943;28;19929;-78
2023/08/14 00:24:51;;;;;;;;;;;14.80;99.90;;;;;;5048513;28;19948;-78
2023/08/14 00:27:16;;;;;;;;;;;14.80;99.90;;;;;;4999472;28;20844;-78
2023/08/14 00:29:42;;;;;;;;;;;14.80;99.90;;;;;;5031281;28;19925;-78
2023/08/14 00:32:07;;;;;;;;;;;14.80;99.90;;;;;;5033633;28;20020;-79
2023/08/14 00:34:33;;;;;;;;;;;14.80;99.90;;;;;;5049550;28;19979;-78
2023/08/14 00:36:59;;;;;;;;;;;14.80;99.90;;;;;;5002631;28;19967;-78
2023/08/14 00:39:24;;;;;;;;;;;14.80;99.90;;;;;;5048391;28;19939;-79
2023/08/14 00:41:50;;;;;;;;;;;14.70;99.90;;;;;;5016049;28;20042;-78
2023/08/14 00:44:16;;;;;;;;;;;14.70;99.90;;;;;;5018007;28;19983;-78
2023/08/14 00:46:41;;;;;;;;;;;14.70;99.90;;;;;;5016475;28;19936;-78
2023/08/14 00:49:07;;;;;;;;;;;14.70;99.90;;;;;;5016540;28;19936;-78
2023/08/14 00:51:34;;;;;;;;;;;14.70;99.90;;;;;;5033959;28;19940;-78
2023/08/14 00:54:00;;;;;;;;;;;14.70;99.90;;;;;;5019209;28;19936;-78
2023/08/14 00:56:28;;;;;;;;;;;14.70;99.90;;;;;;5024160;28;19925;-78
2023/08/14 00:58:53;;;;;;;;;;;14.70;99.90;;;;;;5065412;28;19940;-79
2023/08/14 01:01:19;;;;;;;;;;;14.70;99.90;;;;;;5018263;28;19925;-78
2023/08/14 01:03:44;;;;;;;;;;;14.70;99.90;;;;;;5017987;28;19932;-78
2023/08/14 01:06:10;;;;;;;;;;;14.70;99.90;;;;;;5042235;28;19936;-78
2023/08/14 01:08:36;;;;;;;;;;;14.70;99.90;;;;;;5049258;28;19935;-78
2023/08/14 01:11:01;;;;;;;;;;;14.70;99.90;;;;;;5034021;28;20301;-78
2023/08/14 01:13:42;;;;;;;;;;;14.70;99.90;;;;;;5056425;28;19956;-77
2023/08/14 01:16:10;;;;;;;;;;;14.70;99.90;;;;;;5007421;28;19989;-78
2023/08/14 01:18:38;;;;;;;;;;;14.70;99.90;;;;;;5014288;28;19956;-78
2023/08/14 01:21:21;;;;;;;;;;;14.70;99.90;;;;;;5015577;28;19929;-77
2023/08/14 01:24:02;;;;;;;;;;;14.70;99.90;;;;;;5048839;28;20044;-77
2023/08/14 01:26:28;;;;;;;;;;;14.60;99.90;;;;;;5035767;28;19929;-78
2023/08/14 01:28:54;;;;;;;;;;;14.60;99.90;;;;;;5064088;28;19948;-77
2023/08/14 01:31:20;;;;;;;;;;;14.50;99.90;;;;;;5016749;28;19975;-77
2023/08/14 01:33:45;;;;;;;;;;;14.50;99.90;;;;;;5030901;28;22439;-77
2023/08/14 01:36:11;;;;;;;;;;;14.50;99.90;;;;;;5031889;28;19964;-78
2023/08/14 01:38:42;;;;;;;;;;;14.50;99.90;;;;;;5031311;28;19925;-78
2023/08/14 01:41:11;;;;;;;;;;;14.60;99.90;;;;;;5030658;28;19925;-78
2023/08/14 01:43:38;;;;;;;;;;;14.60;99.90;;;;;;5046616;28;19931;-77
2023/08/14 01:46:04;;;;;;;;;;;14.50;99.90;;;;;;5016661;28;19933;-78
2023/08/14 01:48:30;;;;;;;;;;;14.50;99.90;;;;;;5013737;28;19964;-78
2023/08/14 01:50:56;;;;;;;;;;;14.50;99.90;;;;;;4996230;28;20509;-78
2023/08/14 01:53:22;;;;;;;;;;;14.50;99.90;;;;;;5046832;28;19930;-78
2023/08/14 01:55:53;;;;;;;;;;;14.50;99.90;;;;;;5030907;28;19951;-78
2023/08/14 01:58:19;;;;;;;;;;;14.50;99.90;;;;;;5015069;28;19933;-78
2023/08/14 02:00:44;;;;;;;;;;;14.50;99.90;;;;;;5047471;28;20684;-77
2023/08/14 02:03:10;;;;;;;;;;;14.50;99.90;;;;;;5031062;28;20384;-78
2023/08/14 02:05:35;;;;;;;;;;;14.50;99.90;;;;;;5048446;28;19925;-77
2023/08/14 02:08:01;;;;;;;;;;;14.50;99.90;;;;;;5014713;28;19994;-78
2023/08/14 02:10:26;;;;;;;;;;;14.50;99.90;;;;;;5012939;28;19929;-77
2023/08/14 02:12:52;;;;;;;;;;;14.40;99.90;;;;;;5029234;28;19932;-78
2023/08/14 02:15:20;;;;;;;;;;;14.40;99.90;;;;;;4995996;28;19929;-78
2023/08/14 02:17:45;;;;;;;;;;;14.40;99.90;;;;;;5013336;28;19960;-78
2023/08/14 02:20:11;;;;;;;;;;;14.40;99.90;;;;;;5030522;28;19925;-78
2023/08/14 02:22:37;;;;;;;;;;;14.40;99.90;;;;;;5014649;28;19933;-78
2023/08/14 02:25:02;;;;;;;;;;;14.40;99.90;;;;;;4998802;28;19925;-78
2023/08/14 02:27:28;;;;;;;;;;;14.40;99.90;;;;;;5032275;28;19936;-78
2023/08/14 02:29:53;;;;;;;;;;;14.40;99.90;;;;;;5013912;28;19940;-78
2023/08/14 02:32:19;;;;;;;;;;;14.40;99.90;;;;;;4996135;28;19925;-78
2023/08/14 02:34:46;;;;;;;;;;;14.40;99.90;;;;;;5032175;28;19947;-77
2023/08/14 02:37:13;;;;;;;;;;;14.30;99.90;;;;;;5034567;28;19933;-78
2023/08/14 02:39:39;;;;;;;;;;;14.30;99.90;;;;;;5047590;28;19930;-78
2023/08/14 02:42:04;;;;;;;;;;;14.30;99.90;;;;;;5032872;28;19982;-78
2023/08/14 02:44:30;;;;;;;;;;;14.20;99.90;;;;;;4998834;28;19932;-77
2023/08/14 02:46:56;;;;;;;;;;;14.20;99.90;;;;;;5015243;28;19929;-77
2023/08/14 02:49:22;;;;;;;;;;;14.20;99.90;;;;;;5020700;28;20019;-77
2023/08/14 02:51:47;;;;;;;;;;;14.20;99.90;;;;;;5013699;28;19926;-78
2023/08/14 02:54:13;;;;;;;;;;;14.20;99.90;;;;;;5014562;28;19936;-78
2023/08/14 02:56:38;;;;;;;;;;;14.10;99.90;;;;;;5013878;28;19997;-78
2023/08/14 02:59:04;;;;;;;;;;;14.10;99.90;;;;;;5047871;28;19979;-78
2023/08/14 03:01:30;;;;;;;;;;;14.10;99.90;;;;;;5053143;28;19929;-78
2023/08/14 03:03:55;;;;;;;;;;;14.20;99.90;;;;;;5018008;28;20023;-78
2023/08/14 03:06:22;;;;;;;;;;;14.10;99.90;;;;;;5023176;28;19992;-78
2023/08/14 03:08:48;;;;;;;;;;;14.10;99.90;;;;;;5035207;28;20072;-77
2023/08/14 03:11:14;;;;;;;;;;;14.10;99.90;;;;;;5017507;28;19925;-77
2023/08/14 03:13:39;;;;;;;;;;;14.20;99.90;;;;;;5067078;28;19979;-77
2023/08/14 03:16:06;;;;;;;;;;;14.10;99.90;;;;;;5003548;28;19929;-77
2023/08/14 03:18:31;;;;;;;;;;;14.10;99.90;;;;;;5047358;28;19936;-78
2023/08/14 03:20:57;;;;;;;;;;;14.10;99.90;;;;;;5013056;28;19929;-77
2023/08/14 03:23:23;;;;;;;;;;;14.10;99.90;;;;;;5050058;28;20023;-77
2023/08/14 03:25:48;;;;;;;;;;;14.10;99.90;;;;;;5049898;28;19937;-77
2023/08/14 03:28:14;;;;;;;;;;;14.10;99.90;;;;;;5034379;28;19939;-78
2023/08/14 03:30:40;;;;;;;;;;;14.10;99.90;;;;;;5015925;28;19960;-77
2023/08/14 03:33:06;;;;;;;;;;;14.10;99.90;;;;;;5052524;28;19929;-77
2023/08/14 03:35:31;;;;;;;;;;;14.10;99.90;;;;;;5017605;28;19925;-77
2023/08/14 03:37:57;;;;;;;;;;;14.10;99.90;;;;;;5018593;28;19926;-77
2023/08/14 03:40:24;;;;;;;;;;;14.00;99.90;;;;;;5035347;28;20378;-77
2023/08/14 03:42:50;;;;;;;;;;;14.00;99.90;;;;;;5035412;28;19925;-77
2023/08/14 03:45:15;;;;;;;;;;;14.00;99.90;;;;;;5019540;28;19932;-78
2023/08/14 03:47:41;;;;;;;;;;;13.90;99.90;;;;;;5018893;28;19925;-77
2023/08/14 03:50:06;;;;;;;;;;;14.00;99.90;;;;;;5051740;28;21975;-77
2023/08/14 03:52:32;;;;;;;;;;;13.90;99.90;;;;;;5051223;28;19926;-77
2023/08/14 03:54:58;;;;;;;;;;;14.00;99.90;;;;;;5035265;28;19926;-78
2023/08/14 03:57:23;;;;;;;;;;;13.90;99.90;;;;;;5020823;28;19968;-77
2023/08/14 03:59:49;;;;;;;;;;;13.90;99.90;;;;;;5005383;28;19931;-77
2023/08/14 04:02:14;;;;;;;;;;;13.90;99.90;;;;;;5035417;28;19951;-78
2023/08/14 04:04:40;;;;;;;;;;;13.90;99.90;;;;;;5033820;28;19971;-78
2023/08/14 04:07:07;;;;;;;;;;;14.00;99.90;;;;;;5053092;28;19929;-78
2023/08/14 04:09:34;;;;;;;;;;;13.90;99.90;;;;;;5020520;28;19925;-77
2023/08/14 04:12:03;;;;;;;;;;;13.90;99.90;;;;;;4994164;28;19933;-78
2023/08/14 04:14:29;;;;;;;;;;;13.90;99.90;;;;;;5017129;28;19936;-78
2023/08/14 04:16:55;;;;;;;;;;;13.90;99.90;;;;;;5033674;28;20434;-78
2023/08/14 04:19:27;;;;;;;;;;;13.90;99.90;;;;;;5003042;28;19948;-77
2023/08/14 04:21:52;;;;;;;;;;;13.80;99.90;;;;;;5016855;28;19944;-77
2023/08/14 04:24:18;;;;;;;;;;;13.90;99.90;;;;;;5015967;28;19932;-77
2023/08/14 04:26:44;;;;;;;;;;;13.80;99.90;;;;;;5016579;28;19929;-78
2023/08/14 04:29:10;;;;;;;;;;;13.80;99.90;;;;;;5047566;28;20419;-78
2023/08/14 04:31:36;;;;;;;;;;;13.80;99.90;;;;;;5034221;28;19925;-78
2023/08/14 04:34:02;;;;;;;;;;;13.90;99.90;;;;;;5015842;28;20490;-78
2023/08/14 04:36:28;;;;;;;;;;;13.90;99.90;;;;;;5017191;28;19964;-78
2023/08/14 04:38:54;;;;;;;;;;;13.90;99.90;;;;;;5033216;28;20317;-78
2023/08/14 04:41:19;;;;;;;;;;;13.90;99.90;;;;;;5002139;28;19967;-78
2023/08/14 04:43:45;;;;;;;;;;;14.00;99.90;;;;;;5001530;28;19936;-78
2023/08/14 04:46:11;;;;;;;;;;;14.00;99.90;;;;;;5017664;28;19940;-78
2023/08/14 04:48:37;;;;;;;;;;;14.10;99.90;;;;;;5018293;28;19929;-78
2023/08/14 04:51:03;;;;;;;;;;;14.10;99.90;;;;;;5034697;28;19931;-77
2023/08/14 04:53:28;;;;;;;;;;;14.20;99.90;;;;;;5034160;28;19971;-77
2023/08/14 04:55:54;;;;;;;;;;;14.20;99.90;;;;;;5033709;28;20013;-78
2023/08/14 04:58:19;;;;;;;;;;;14.40;99.90;;;;;;5031851;28;19929;-78
2023/08/14 05:00:45;;;;;;;;;;;14.40;99.90;;;;;;5021409;28;20011;-78
2023/08/14 05:03:11;;;;;;;;;;;14.40;99.90;;;;;;5020904;28;19929;-78
2023/08/14 05:05:36;;;;;;;;;;;14.50;99.90;;;;;;5038580;28;19940;-78
2023/08/14 05:08:02;;;;;;;;;;;14.60;99.90;;;;;;5017502;28;20036;-78
2023/08/14 05:10:27;;;;;;;;;;;14.70;99.90;;;;;;5018888;28;20414;-78
2023/08/14 05:12:55;;;;;;;;;;;14.90;99.90;;;;;;5013949;28;19983;-78
2023/08/14 05:15:21;;;;;;;;;;;15.30;99.90;;;;;;5067614;28;19947;-78
2023/08/14 05:17:46;;;;;;;;;;;15.60;99.90;;;;;;5031866;28;19964;-78
2023/08/14 05:20:12;;;;;;;;;;;16.00;99.90;;;;;;5031307;28;20844;-78
2023/08/14 05:22:38;;;;;;;;;;;16.50;99.90;;;;;;5031943;28;19956;-77
2023/08/14 05:25:05;;;;;;;;;;;16.80;99.90;;;;;;5049384;28;19957;-78
2023/08/14 05:27:36;;;;;;;;;;;17.10;99.90;;;;;;5030594;28;21824;-78
2023/08/14 05:30:02;;;;;;;;;;;17.40;99.90;;;;;;5046806;28;19936;-77
2023/08/14 05:32:28;;;;;;;;;;;17.70;99.90;;;;;;5034008;28;19929;-78
2023/08/14 05:34:53;;;;;;;;;;;17.80;99.90;;;;;;5016035;28;19944;-78
2023/08/14 05:37:19;;;;;;;;;;;18.00;99.90;;;;;;5012482;28;19933;-77
2023/08/14 05:39:44;;;;;;;;;;;18.10;99.90;;;;;;5047635;28;19925;-78
2023/08/14 05:42:10;;;;;;;;;;;18.20;99.90;;;;;;5048679;28;19929;-78
2023/08/14 05:44:36;;;;;;;;;;;18.20;99.90;;;;;;5031739;28;19940;-78
2023/08/14 05:47:01;;;;;;;;;;;18.20;99.90;;;;;;5029900;28;19929;-78
2023/08/14 05:49:27;;;;;;;;;;;18.00;99.90;;;;;;5033052;28;20423;-77
2023/08/14 05:51:52;;;;;;;;;;;17.90;99.90;;;;;;5016557;28;19960;-77
2023/08/14 05:54:18;;;;;;;;;;;17.70;99.90;;;;;;4997938;28;19936;-77
2023/08/14 05:56:45;;;;;;;;;;;17.60;99.90;;;;;;5047502;28;20404;-78
2023/08/14 05:59:11;;;;;;;;;;;17.50;99.90;;;;;;5045116;28;19929;-77
2023/08/14 06:01:36;;;;;;;;;;;17.40;99.90;;;;;;5048227;28;20436;-77
2023/08/14 06:04:02;;;;;;;;;;;17.40;99.90;;;;;;5047213;28;19992;-77
2023/08/14 06:06:28;;;;;;;;;;;17.30;99.90;;;;;;4995458;28;20292;-78
2023/08/14 06:08:53;;;;;;;;;;;17.40;99.90;;;;;;5028910;28;20012;-78
2023/08/14 06:11:19;;;;;;;;;;;17.40;99.90;;;;;;5030561;28;20459;-78
2023/08/14 06:13:44;;;;;;;;;;;17.40;99.90;;;;;;5030042;28;20426;-78
2023/08/14 06:16:11;;;;;;;;;;;17.40;99.90;;;;;;5012203;28;19933;-78
2023/08/14 06:18:36;;;;;;;;;;;17.40;99.90;;;;;;5011917;28;19929;-78
2023/08/14 06:21:02;;;;;;;;;;;17.40;99.90;;;;;;4996333;28;20032;-77
2023/08/14 06:23:27;;;;;;;;;;;17.30;99.90;;;;;;5015832;28;20486;-78
2023/08/14 06:25:53;;;;;;;;;;;17.40;99.90;;;;;;5047185;28;19933;-78
2023/08/14 06:28:18;;;;;;;;;;;17.30;99.90;;;;;;5010368;28;19936;-77
2023/08/14 06:30:44;;;;;;;;;;;17.40;99.90;;;;;;5062659;28;19999;-78
2023/08/14 06:33:10;;;;;;;;;;;17.40;99.90;;;;;;5044778;28;20628;-78
2023/08/14 06:35:35;;;;;;;;;;;17.40;99.90;;;;;;5046075;28;19925;-78
2023/08/14 06:38:01;;;;;;;;;;;17.40;99.90;;;;;;5046983;28;20008;-78
2023/08/14 06:40:26;;;;;;;;;;;17.40;99.90;;;;;;5062940;28;19929;-78
2023/08/14 06:42:52;;;;;;;;;;;17.40;99.90;;;;;;5028101;28;20465;-78
2023/08/14 06:45:17;;;;;;;;;;;17.40;99.90;;;;;;5013900;28;19925;-78
2023/08/14 06:47:44;;;;;;;;;;;17.40;99.90;;;;;;5035929;28;19933;-78
2023/08/14 06:50:10;;;;;;;;;;;17.50;99.90;;;;;;5062533;28;19925;-78
2023/08/14 06:52:36;;;;;;;;;;;17.50;99.90;;;;;;5047366;28;19973;-78
2023/08/14 06:55:05;;;;;;;;;;;17.50;99.90;;;;;;5029496;28;19964;-78
2023/08/14 06:57:30;;;;;;;;;;;17.60;99.90;;;;;;5013582;28;19936;-78
2023/08/14 06:59:56;;;;;;;;;;;17.60;99.90;;;;;;4994925;28;19925;-78
2023/08/14 07:02:21;;;;;;;;;;;17.70;99.90;;;;;;5028372;28;19964;-78
2023/08/14 07:04:47;;;;;;;;;;;17.80;99.90;;;;;;4996423;28;19944;-78
2023/08/14 07:07:12;;;;;;;;;;;17.80;99.90;;;;;;5015964;28;19968;-79
2023/08/14 07:09:38;;;;;;;;;;;17.90;99.90;;;;;;5039986;28;19925;-79
2023/08/14 07:12:10;;;;;;;;;;;17.90;99.90;;;;;;5027315;28;19947;-79
2023/08/14 07:14:36;;;;;;;;;;;18.00;99.90;;;;;;4993391;28;19934;-79
2023/08/14 07:17:02;;;;;;;;;;;18.10;99.90;;;;;;5040390;28;20315;-79
2023/08/14 07:19:27;;;;;;;;;;;18.20;99.90;;;;;;4994146;28;19936;-79
2023/08/14 07:21:53;;;;;;;;;;;18.40;99.90;;;;;;5042343;28;19936;-79
2023/08/14 07:24:18;;;;;;;;;;;18.60;99.90;;;;;;5011225;28;19940;-79
2023/08/14 07:26:44;;;;;;;;;;;18.90;99.90;;;;;;5042839;28;20028;-79
2023/08/14 07:29:13;;;;;;;;;;;19.10;99.90;;;;;;5023927;28;19929;-79
2023/08/14 07:31:38;;;;;;;;;;;19.40;99.90;;;;;;4994833;28;19998;-79
2023/08/14 07:34:04;;;;;;;;;;;19.70;99.90;;;;;;5008136;28;19968;-80
2023/08/14 07:36:29;;;;;;;;;;;20.20;99.90;;;;;;5024335;28;20384;-80
2023/08/14 07:38:55;;;;;;;;;;;20.60;99.90;;;;;;5022243;28;19933;-80
2023/08/14 07:41:21;;;;;;;;;;;21.00;99.90;;;;;;5043714;28;19926;-80
2023/08/14 07:43:46;;;;;;;;;;;21.40;99.90;;;;;;5043034;28;20011;-80
2023/08/14 07:46:12;;;;;;;;;;;21.80;99.90;;;;;;5028031;28;19971;-80
2023/08/14 07:48:38;;;;;;;;;;;22.00;99.90;;;;;;5013756;28;19977;-80
2023/08/14 07:51:03;;;;;;;;;;;22.20;99.90;;;;;;5047871;28;20250;-81
2023/08/14 07:53:29;;;;;;;;;;;22.30;99.90;;;;;;5048006;28;19939;-82
2023/08/14 07:55:54;;;;;;;;;;;22.30;99.90;;;;;;5047441;28;19936;-81
2023/08/14 07:58:20;;;;;;;;;;;22.50;99.90;;;;;;5017577;28;19984;-83
2023/08/14 08:00:46;;;;;;;;;;;23.20;99.90;;;;;;5034521;28;19944;-81
2023/08/14 08:03:11;;;;;;;;;;;23.70;99.90;;;;;;5017919;28;19996;-81
2023/08/14 08:05:37;;;;;;;;;;;23.90;99.90;;;;;;5035488;28;19925;-80
2023/08/14 08:08:04;;;;;;;;;;;23.90;99.90;;;;;;5028880;28;20650;-81
2023/08/14 08:10:30;;;;;;;;;;;23.90;99.90;;;;;;5033214;28;19952;-81
2023/08/14 08:12:56;;;;;;;;;;;24.20;99.90;;;;;;5030798;28;19925;-81
2023/08/14 08:15:21;;;;;;;;;;;24.60;99.90;;;;;;5015790;28;19930;-80
2023/08/14 08:17:47;;;;;;;;;;;25.00;99.90;;;;;;5031377;28;19951;-80
2023/08/14 08:20:12;;;;;;;;;;;25.50;99.90;;;;;;5017587;28;19948;-81
2023/08/14 08:22:38;;;;;;;;;;;26.00;99.90;;;;;;5049375;28;19929;-81
2023/08/14 08:25:04;;;;;;;;;;;26.30;99.90;;;;;;5014725;28;20019;-80
2023/08/14 08:27:30;;;;;;;;;;;26.60;99.90;;;;;;5038916;28;20411;-80
2023/08/14 08:29:56;;;;;;;;;;;26.80;99.90;;;;;;5045392;28;19957;-82
2023/08/14 08:32:21;;;;;;;;;;;27.00;99.90;;;;;;5046248;28;19925;-81
2023/08/14 08:34:47;;;;;;;;;;;27.20;99.90;;;;;;5045346;28;19937;-79
2023/08/14 08:37:13;;;;;;;;;;;27.30;99.90;;;;;;5005152;28;19928;-81
2023/08/14 08:39:39;;;;;;;;;;;27.40;99.90;;;;;;5017026;28;19960;-78
2023/08/14 08:42:06;;;;;;;;;;;27.20;99.90;;;;;;5067070;28;19956;-79
2023/08/14 08:44:32;;;;;;;;;;;26.90;99.90;;;;;;5034514;28;19980;-82
2023/08/14 08:47:17;;;;;;;;;;;26.70;99.90;;;;;;5049340;28;19926;-77
2023/08/14 08:49:43;;;;;;;;;;;26.70;99.90;;;;;;5034731;28;20427;-79
2023/08/14 08:52:09;;;;;;;;;;;26.90;99.90;;;;;;5033759;28;19925;-81
2023/08/14 08:54:35;;;;;;;;;;;27.20;99.90;;;;;;5031992;28;19943;-81
2023/08/14 08:57:01;;;;;;;;;;;27.50;99.90;;;;;;5065107;28;19925;-80
2023/08/14 08:59:27;;;;;;;;;;;27.70;99.90;;;;;;4999018;28;19926;-81
2023/08/14 09:01:53;;;;;;;;;;;27.80;99.90;;;;;;5055042;28;19975;-81
2023/08/14 09:04:18;;;;;;;;;;;27.80;99.90;;;;;;5072679;28;20377;-80
2023/08/14 09:06:44;;;;;;;;;;;27.80;99.90;;;;;;5002376;28;19947;-81
2023/08/14 09:09:11;;;;;;;;;;;27.80;99.90;;;;;;5016704;28;19933;-81
2023/08/14 09:11:37;;;;;;;;;;;27.70;99.90;;;;;;5051803;28;19987;-80
2023/08/14 09:14:03;;;;;;;;;;;27.40;99.90;;;;;;5031336;28;20404;-81
2023/08/14 09:16:28;;;;;;;;;;;27.10;99.90;;;;;;5031041;28;19930;-80
2023/08/14 09:18:58;;;;;;;;;;;26.90;99.90;;;;;;5030250;28;19970;-80
2023/08/14 09:21:24;;;;;;;;;;;27.00;99.90;;;;;;5029799;28;19970;-80
2023/08/14 09:23:50;;;;;;;;;;;27.30;99.90;;;;;;5032761;28;19933;-80
2023/08/14 09:26:16;;;;;;;;;;;27.50;99.90;;;;;;5047500;28;19935;-81
2023/08/14 09:28:41;;;;;;;;;;;27.70;99.90;;;;;;5027399;28;19952;-80
2023/08/14 09:31:08;;;;;;;;;;;27.80;99.90;;;;;;5032302;28;19948;-81
2023/08/14 09:33:36;;;;;;;;;;;28.00;99.90;;;;;;5028867;28;19929;-81
2023/08/14 09:36:01;;;;;;;;;;;28.10;99.90;;;;;;5015731;28;19968;-83
2023/08/14 09:38:27;;;;;;;;;;;28.10;99.90;;;;;;5015378;28;19925;-82
2023/08/14 09:40:57;;;;;;;;;;;28.10;99.90;;;;;;5067299;28;20296;-81
2023/08/14 09:43:26;;;;;;;;;;;28.20;99.90;;;;;;5030843;28;19960;-81
2023/08/14 09:45:52;;;;;;;;;;;28.50;99.90;;;;;;5034998;28;19935;-81
2023/08/14 09:48:18;;;;;;;;;;;28.50;99.90;;;;;;5037349;28;19929;-81
2023/08/14 09:50:51;;;;;;;;;;;28.70;99.90;;;;;;5040692;28;19928;-81
2023/08/14 09:53:17;;;;;;;;;;;28.70;99.90;;;;;;5034284;28;19948;-81
2023/08/14 09:55:43;;;;;;;;;;;28.80;99.90;;;;;;5067178;28;19925;-71
2023/08/14 09:58:09;;;;;;;;;;;28.90;99.90;;;;;;5069068;28;20008;-71
2023/08/14 10:00:36;;;;;;;;;;;28.80;99.90;;;;;;5035410;28;20506;-71
2023/08/14 10:03:02;;;;;;;;;;;28.90;99.90;;;;;;5060307;28;19929;-71
2023/08/14 10:05:28;;;;;;;;;;;28.90;99.90;;;;;;5032258;28;19925;-71
2023/08/14 10:07:54;;;;;;;;;;;29.00;99.90;;;;;;5031279;28;19929;-71
2023/08/14 10:10:24;;;;;;;;;;;29.10;99.90;;;;;;5033061;28;19925;-71
2023/08/14 10:12:51;;;;;;;;;;;29.10;99.70;;;;;;5028422;28;19975;-71
2023/08/14 10:15:20;;;;;;;;;;;28.90;99.90;;;;;;5035724;28;19925;-70
2023/08/14 10:17:56;;;;;;;;;;;29.00;99.90;;;;;;5061757;28;20404;-71
2023/08/14 10:20:24;;;;;;;;;;;29.00;98.20;;;;;;5010908;28;19929;-72
2023/08/14 10:22:52;;;;;;;;;;;29.10;98.90;;;;;;5029602;28;20928;-71
2023/08/14 10:25:19;;;;;;;;;;;29.10;98.00;;;;;;5032619;28;19961;-70
2023/08/14 10:27:45;;;;;;;;;;;28.90;97.70;;;;;;5029958;28;19933;-70
2023/08/14 10:30:11;;;;;;;;;;;28.70;97.70;;;;;;5032055;28;19929;-71
2023/08/14 10:32:37;;;;;;;;;;;28.60;99.20;;;;;;5062282;28;19929;-71
2023/08/14 10:35:03;;;;;;;;;;;28.50;98.00;;;;;;5027380;28;19964;-70
2023/08/14 10:37:41;;;;;;;;;;;28.40;98.40;;;;;;5035982;28;19925;-71
2023/08/14 10:40:15;;;;;;;;;;;28.40;99.90;;;;;;5023660;28;20116;-71
2023/08/14 10:42:45;;;;;;;;;;;28.40;95.30;;;;;;5037004;28;20273;-72
2023/08/14 10:45:11;;;;;;;;;;;28.40;99.90;;;;;;5050511;28;19929;-72
2023/08/14 10:47:37;;;;;;;;;;;28.30;99.00;;;;;;5038625;28;19929;-71
2023/08/14 10:50:12;;;;;;;;;;;28.10;97.20;;;;;;5053569;28;19925;-71
2023/08/14 10:52:38;;;;;;;;;;;27.90;97.80;;;;;;5037538;28;20296;-72
2023/08/14 10:55:03;;;;;;;;;;;27.60;96.10;;;;;;5052281;28;19929;-71
2023/08/14 10:57:29;;;;;;;;;;;27.50;98.50;;;;;;5035901;28;19976;-71
2023/08/14 10:59:56;;;;;;;;;;;27.60;99.20;;;;;;5029521;28;19926;-74
2023/08/14 11:02:21;;;;;;;;;;;27.80;98.90;;;;;;5035750;28;19925;-72
2023/08/14 11:04:58;;;;;;;;;;;27.80;97.30;;;;;;5033409;28;19929;-72
2023/08/14 11:07:30;;;;;;;;;;;27.80;99.00;;;;;;5039989;28;20121;-72
2023/08/14 11:10:02;;;;;;;;;;;27.80;96.50;;;;;;5069133;28;19984;-71
2023/08/14 11:12:27;;;;;;;;;;;27.80;96.30;;;;;;5027677;28;19928;-71
2023/08/14 11:14:54;;;;;;;;;;;27.80;97.60;;;;;;5031165;28;20000;-73
2023/08/14 11:17:20;;;;;;;;;;;27.90;98.30;;;;;;5036536;28;19925;-72
2023/08/14 11:19:46;;;;;;;;;;;27.90;98.40;;;;;;5030725;28;19979;-72
2023/08/14 11:22:11;;;;;;;;;;;28.10;97.10;;;;;;5031657;28;19933;-71
2023/08/14 11:24:37;;;;;;;;;;;28.20;97.80;;;;;;5066157;28;19929;-71
2023/08/14 11:27:03;;;;;;;;;;;28.20;97.30;;;;;;5032284;28;20009;-72
2023/08/14 11:29:29;;;;;;;;;;;28.40;97.30;;;;;;5040013;28;19955;-72
2023/08/14 11:31:54;;;;;;;;;;;28.50;97.50;;;;;;5064439;28;19929;-72
2023/08/14 11:34:20;;;;;;;;;;;28.60;96.70;;;;;;5015584;28;19935;-71
2023/08/14 11:36:57;;;;;;;;;;;28.70;98.20;;;;;;5034547;28;19925;-70
2023/08/14 11:39:22;;;;;;;;;;;28.70;95.70;;;;;;5038863;28;20797;-71
2023/08/14 11:41:48;;;;;;;;;;;28.50;96.30;;;;;;5032439;28;20366;-71
2023/08/14 11:44:14;;;;;;;;;;;28.50;95.50;;;;;;5034764;28;19936;-71
2023/08/14 11:46:39;;;;;;;;;;;28.40;96.90;;;;;;5017462;28;19925;-72
2023/08/14 11:49:05;;;;;;;;;;;28.40;95.30;;;;;;5033624;28;19948;-72
2023/08/14 11:51:31;;;;;;;;;;;28.20;95.40;;;;;;5034719;28;19936;-71
2023/08/14 11:53:58;;;;;;;;;;;28.10;96.90;;;;;;5034510;28;19929;-72
2023/08/14 11:56:24;;;;;;;;;;;27.80;94.00;;;;;;5068198;28;19926;-71
2023/08/14 11:58:49;;;;;;;;;;;27.60;97.40;;;;;;5064736;28;20255;-71
2023/08/14 12:01:15;;;;;;;;;;;27.50;97.50;;;;;;5036301;28;19932;-71
2023/08/14 12:03:41;;;;;;;;;;;27.50;95.80;;;;;;5036200;28;19929;-71
2023/08/14 12:06:07;;;;;;;;;;;27.60;96.20;;;;;;5070129;28;19933;-71
2023/08/14 12:08:32;;;;;;;;;;;27.70;96.90;;;;;;5034691;28;19925;-71
2023/08/14 12:10:58;;;;;;;;;;;27.90;98.80;;;;;;5029977;28;19925;-71
2023/08/14 12:13:24;;;;;;;;;;;28.00;96.70;;;;;;5035465;28;19999;-71
2023/08/14 12:15:49;;;;;;;;;;;27.90;97.00;;;;;;5037815;28;19925;-71
2023/08/14 12:18:22;;;;;;;;;;;27.70;95.50;;;;;;5034579;28;19931;-70
2023/08/14 12:20:54;;;;;;;;;;;27.50;97.20;;;;;;5032537;28;19932;-71
2023/08/14 12:23:22;;;;;;;;;;;27.50;97.30;;;;;;5028476;28;19956;-71
2023/08/14 12:25:49;;;;;;;;;;;27.50;95.40;;;;;;5032360;28;19948;-71
2023/08/14 12:28:14;;;;;;;;;;;27.40;96.20;;;;;;5032647;28;19948;-71
2023/08/14 12:30:40;;;;;;;;;;;27.40;95.80;;;;;;5030737;28;19933;-70
2023/08/14 12:33:05;;;;;;;;;;;27.70;96.90;;;;;;5029842;28;19926;-71
2023/08/14 12:35:31;;;;;;;;;;;27.80;96.70;;;;;;5033603;28;19929;-71
2023/08/14 12:37:58;;;;;;;;;;;27.90;97.00;;;;;;5038075;28;19929;-71
2023/08/14 12:40:24;;;;;;;;;;;28.20;96.10;;;;;;5041088;28;19933;-71
2023/08/14 12:42:49;;;;;;;;;;;28.30;95.50;;;;;;5037056;28;20388;-70
2023/08/14 12:45:15;;;;;;;;;;;28.20;94.40;;;;;;5041065;28;19925;-71
2023/08/14 12:47:41;;;;;;;;;;;28.00;95.60;;;;;;5019133;28;19933;-70
2023/08/14 12:50:07;;;;;;;;;;;27.80;95.70;;;;;;5065609;28;20790;-71
2023/08/14 12:52:32;;;;;;;;;;;27.70;94.50;;;;;;5066622;28;19929;-70
2023/08/14 12:54:58;;;;;;;;;;;27.50;93.60;;;;;;5039023;28;19936;-70
2023/08/14 12:57:25;;;;;;;;;;;27.30;95.70;;;;;;5032998;28;19929;-71
2023/08/14 12:59:50;;;;;;;;;;;27.00;95.00;;;;;;5037854;28;19925;-72
2023/08/14 13:02:16;;;;;;;;;;;26.90;98.00;;;;;;5036566;28;19928;-71
2023/08/14 13:04:41;;;;;;;;;;;27.00;95.40;;;;;;5029261;28;19926;-71
2023/08/14 13:07:08;;;;;;;;;;;27.10;97.10;;;;;;5035999;28;20837;-70
2023/08/14 13:09:33;;;;;;;;;;;27.00;95.90;;;;;;5037157;28;19929;-71
2023/08/14 13:12:00;;;;;;;;;;;26.80;95.40;;;;;;5035908;28;20348;-71
2023/08/14 13:14:26;;;;;;;;;;;26.70;96.90;;;;;;5063522;28;19929;-71
2023/08/14 13:16:52;;;;;;;;;;;26.90;98.10;;;;;;5031836;28;20014;-71
2023/08/14 13:19:17;;;;;;;;;;;27.20;95.30;;;;;;5016439;28;19925;-70
2023/08/14 13:21:43;;;;;;;;;;;27.50;94.80;;;;;;5031407;28;19932;-70
2023/08/14 13:24:08;;;;;;;;;;;27.70;96.70;;;;;;5031435;28;19940;-70
2023/08/14 13:26:34;;;;;;;;;;;27.70;95.60;;;;;;5031950;28;20032;-70
2023/08/14 13:28:59;;;;;;;;;;;27.80;94.00;;;;;;5031781;28;19926;-70
2023/08/14 13:31:27;;;;;;;;;;;27.90;94.10;;;;;;5032957;28;20015;-70
2023/08/14 13:33:53;;;;;;;;;;;28.20;96.70;;;;;;5031850;28;20280;-70
2023/08/14 13:36:18;;;;;;;;;;;28.40;91.90;;;;;;5032512;28;19964;-70
2023/08/14 13:38:44;;;;;;;;;;;28.40;92.70;;;;;;5033520;28;19933;-70
2023/08/14 13:41:10;;;;;;;;;;;28.40;92.60;;;;;;5038026;28;19949;-70
2023/08/14 13:43:36;;;;;;;;;;;28.50;94.90;;;;;;5045791;28;19933;-70
2023/08/14 13:46:01;;;;;;;;;;;28.50;91.90;;;;;;5035222;28;19979;-71
2023/08/14 13:48:27;;;;;;;;;;;28.60;93.10;;;;;;5030488;28;19967;-70
2023/08/14 13:50:52;;;;;;;;;;;28.60;94.10;;;;;;5030459;28;20368;-71
2023/08/14 13:53:18;;;;;;;;;;;28.40;92.70;;;;;;5030869;28;20407;-70
2023/08/14 13:55:44;;;;;;;;;;;28.10;91.90;;;;;;5030099;28;19952;-70
2023/08/14 13:58:10;;;;;;;;;;;27.80;93.30;;;;;;5032399;28;19989;-71
2023/08/14 14:00:35;;;;;;;;;;;27.50;93.40;;;;;;5029080;28;19955;-71
2023/08/14 14:03:01;;;;;;;;;;;27.30;95.70;;;;;;5028972;28;19925;-71
2023/08/14 14:05:27;;;;;;;;;;;27.30;94.30;;;;;;5033080;28;19961;-75
2023/08/14 14:07:53;;;;;;;;;;;27.40;93.40;;;;;;5011092;28;19930;-72
2023/08/14 14:10:18;;;;;;;;;;;27.50;94.40;;;;;;5028300;28;19925;-71